createdAt,value
2022-12-03T08:09:15.855Z,956.02
2022-12-03T08:10:11.494Z,955.99
2022-12-03T08:11:11.443Z,955.97
2022-12-03T08:12:11.382Z,955.94
2022-12-03T08:13:11.322Z,956.00
2022-12-03T08:14:11.283Z,956.00
2022-12-03T08:15:11.253Z,955.98
2022-12-03T08:16:11.212Z,955.98
2022-12-03T08:17:11.142Z,955.94
2022-12-03T08:18:11.092Z,955.96
2022-12-03T08:19:11.034Z,955.93
2022-12-03T08:20:11.086Z,955.96
2022-12-03T08:21:10.914Z,955.93
2022-12-03T08:22:10.854Z,955.92
2022-12-03T08:23:10.794Z,955.88
2022-12-03T08:24:10.743Z,955.82
2022-12-03T08:25:10.673Z,955.85
2022-12-03T08:26:10.626Z,955.84
2022-12-03T08:27:10.526Z,955.84
2022-12-03T08:28:10.468Z,955.85
2022-12-03T08:29:10.414Z,955.86
2022-12-03T08:30:10.338Z,955.85
2022-12-03T08:31:10.311Z,955.85
2022-12-03T08:32:10.248Z,955.86
2022-12-03T08:33:10.147Z,955.87
2022-12-03T08:34:10.081Z,955.82
2022-12-03T08:35:10.041Z,955.88
2022-12-03T08:36:09.995Z,955.85
2022-12-03T08:37:09.896Z,955.85
2022-12-03T08:38:09.837Z,955.83
2022-12-03T08:39:09.777Z,955.84
2022-12-03T08:40:09.717Z,955.93
2022-12-03T08:41:09.639Z,955.89
2022-12-03T08:42:13.692Z,955.90
2022-12-03T08:43:09.528Z,955.86
2022-12-03T08:44:09.448Z,955.86
2022-12-03T08:45:09.369Z,955.91
2022-12-03T08:46:09.332Z,955.90
2022-12-03T08:47:09.251Z,955.92
2022-12-03T08:48:09.178Z,955.93
2022-12-03T08:49:09.082Z,955.91
2022-12-03T08:50:09.027Z,955.90
2022-12-03T08:51:08.958Z,955.93
2022-12-03T08:52:08.879Z,955.87
2022-12-03T08:53:08.848Z,955.90
2022-12-03T08:54:08.777Z,955.86
2022-12-03T08:55:08.694Z,955.83
2022-12-03T08:56:08.637Z,955.82
2022-12-03T08:57:08.569Z,955.85
2022-12-03T08:58:08.520Z,955.88
2022-12-03T08:59:08.451Z,955.82
2022-12-03T09:00:08.380Z,955.82
2022-12-03T09:01:08.384Z,955.84
2022-12-03T09:02:08.251Z,955.88
2022-12-03T09:03:08.171Z,955.85
2022-12-03T09:04:08.202Z,955.81
2022-12-03T09:05:08.032Z,955.77
2022-12-03T09:06:07.964Z,955.77
2022-12-03T09:07:07.902Z,955.77
2022-12-03T09:08:07.890Z,955.75
2022-12-03T09:09:07.750Z,955.74
2022-12-03T09:10:07.702Z,955.75
2022-12-03T09:11:07.601Z,955.70
2022-12-03T09:12:07.541Z,955.70
2022-12-03T09:13:07.487Z,955.71
2022-12-03T09:14:07.402Z,955.69
2022-12-03T09:15:07.353Z,955.72
2022-12-03T09:16:07.297Z,955.70
2022-12-03T09:17:07.285Z,955.73
2022-12-03T09:18:07.111Z,955.68
2022-12-03T09:19:07.047Z,955.70
2022-12-03T09:20:06.997Z,955.78
2022-12-03T09:21:06.874Z,955.75
2022-12-03T09:22:06.823Z,955.79
2022-12-03T09:23:06.744Z,955.75
2022-12-03T09:24:06.674Z,955.79
2022-12-03T09:25:06.591Z,955.81
2022-12-03T09:26:06.544Z,955.76
2022-12-03T09:27:06.482Z,955.77
2022-12-03T09:28:06.402Z,955.74
2022-12-03T09:29:10.580Z,955.74
2022-12-03T09:30:07.255Z,955.71
2022-12-03T09:31:06.207Z,955.73
2022-12-03T09:32:06.224Z,955.79
2022-12-03T09:33:06.047Z,955.75
2022-12-03T09:34:05.984Z,955.72
2022-12-03T09:35:05.905Z,955.75
2022-12-03T09:36:05.859Z,955.72
2022-12-03T09:37:05.797Z,955.74
2022-12-03T09:38:05.710Z,955.76
2022-12-03T09:39:05.615Z,955.71
2022-12-03T09:40:05.566Z,955.69
2022-12-03T09:41:05.507Z,955.71
2022-12-03T09:42:05.415Z,955.66
2022-12-03T09:43:05.308Z,955.67
2022-12-03T09:44:05.829Z,955.63
2022-12-03T09:45:05.178Z,955.64
2022-12-03T09:46:05.172Z,955.66
2022-12-03T09:47:05.009Z,955.67
2022-12-03T09:48:04.950Z,955.70
2022-12-03T09:49:04.878Z,955.69
2022-12-03T09:50:04.818Z,955.63
2022-12-03T09:51:04.738Z,955.59
2022-12-03T09:52:04.674Z,955.56
2022-12-03T09:53:04.629Z,955.58
2022-12-03T09:54:04.539Z,955.63
2022-12-03T09:55:04.450Z,955.55
2022-12-03T09:56:04.399Z,955.60
2022-12-03T09:57:04.360Z,955.57
2022-12-03T09:58:04.245Z,955.58
2022-12-03T09:59:04.170Z,955.57
2022-12-03T10:00:04.089Z,955.51
2022-12-03T10:01:04.071Z,955.49
2022-12-03T10:02:04.005Z,955.49
2022-12-03T10:03:03.879Z,955.50
2022-12-03T10:04:03.882Z,955.47
2022-12-03T10:05:03.815Z,955.52
2022-12-03T10:06:03.650Z,955.47
2022-12-03T10:07:03.580Z,955.47
2022-12-03T10:08:03.594Z,955.47
2022-12-03T10:09:03.437Z,955.52
2022-12-03T10:10:03.344Z,955.46
2022-12-03T10:11:03.283Z,955.49
2022-12-03T10:12:03.203Z,955.47
2022-12-03T10:13:03.131Z,955.50
2022-12-03T10:14:03.032Z,955.45
2022-12-03T10:15:02.957Z,955.48
2022-12-03T10:16:02.920Z,955.51
2022-12-03T10:17:02.837Z,955.55
2022-12-03T10:18:02.746Z,955.54
2022-12-03T10:19:02.694Z,955.54
2022-12-03T10:20:02.620Z,955.54
2022-12-03T10:21:02.552Z,955.54
2022-12-03T10:22:02.478Z,955.53
2022-12-03T10:23:02.401Z,955.51
2022-12-03T10:24:02.343Z,955.52
2022-12-03T10:25:02.244Z,955.44
2022-12-03T10:26:02.184Z,955.45
2022-12-03T10:27:02.115Z,955.44
2022-12-03T10:28:02.044Z,955.41
2022-12-03T10:29:01.964Z,955.40
2022-12-03T10:30:01.933Z,955.38
2022-12-03T10:31:01.901Z,955.36
2022-12-03T10:32:01.780Z,955.42
2022-12-03T10:33:01.705Z,955.41
2022-12-03T10:34:01.657Z,955.51
2022-12-03T10:35:01.610Z,955.48
2022-12-03T10:36:01.514Z,955.44
2022-12-03T10:37:01.463Z,955.47
2022-12-03T10:38:01.387Z,955.37
2022-12-03T10:39:01.307Z,955.38
2022-12-03T10:40:01.244Z,955.31
2022-12-03T10:41:01.185Z,955.29
2022-12-03T10:42:01.122Z,955.25
2022-12-03T10:43:01.036Z,955.27
2022-12-03T10:44:00.968Z,955.34
2022-12-03T10:45:00.884Z,955.36
2022-12-03T10:46:04.171Z,955.34
2022-12-03T10:47:00.964Z,955.27
2022-12-03T10:48:00.687Z,955.25
2022-12-03T10:49:00.600Z,955.24
2022-12-03T10:50:00.528Z,955.19
2022-12-03T10:51:00.538Z,955.19
2022-12-03T10:52:00.396Z,955.20
2022-12-03T10:53:00.331Z,955.23
2022-12-03T10:54:00.251Z,955.20
2022-12-03T10:55:00.189Z,955.19
2022-12-03T10:56:00.438Z,955.12
2022-12-03T10:57:00.046Z,955.07
2022-12-03T10:57:59.980Z,955.09
2022-12-03T10:58:59.895Z,955.08
2022-12-03T10:59:59.830Z,955.10
2022-12-03T11:00:59.874Z,955.12
2022-12-03T11:01:59.793Z,955.08
2022-12-03T11:02:59.590Z,955.07
2022-12-03T11:03:59.583Z,955.06
2022-12-03T11:04:59.449Z,955.08
2022-12-03T11:05:59.391Z,955.07
2022-12-03T11:06:59.280Z,955.08
2022-12-03T11:07:59.270Z,955.10
2022-12-03T11:09:03.802Z,955.10
2022-12-03T11:10:00.075Z,955.12
2022-12-03T11:10:59.021Z,955.16
2022-12-03T11:11:58.925Z,955.14
2022-12-03T13:26:28.505Z,954.33
2022-12-03T13:27:13.731Z,954.29
2022-12-03T13:28:12.647Z,954.25
2022-12-03T13:29:12.592Z,954.20
2022-12-03T13:30:12.526Z,954.19
2022-12-03T13:31:12.519Z,954.22
2022-12-03T13:32:12.522Z,954.23
2022-12-03T13:33:12.331Z,954.24
2022-12-03T13:34:12.258Z,954.22
2022-12-03T13:35:12.192Z,954.18
2022-12-03T13:36:12.123Z,954.18
2022-12-03T13:37:12.047Z,954.18
2022-12-03T13:38:11.989Z,954.16
2022-12-03T13:39:11.913Z,954.18
2022-12-03T13:40:11.832Z,954.10
2022-12-03T13:41:11.764Z,954.13
2022-12-03T13:42:11.685Z,954.08
2022-12-03T13:43:11.623Z,954.13
2022-12-03T13:44:11.544Z,954.13
2022-12-03T13:45:11.454Z,954.12
2022-12-03T13:46:11.523Z,954.14
2022-12-03T13:47:11.316Z,954.14
2022-12-03T13:48:11.269Z,954.12
2022-12-03T13:49:11.169Z,954.14
2022-12-03T13:50:11.085Z,954.18
2022-12-03T13:51:11.002Z,954.18
2022-12-03T13:52:10.915Z,954.12
2022-12-03T13:53:10.833Z,954.15
2022-12-03T13:54:14.597Z,954.10
2022-12-03T13:55:11.674Z,954.12
2022-12-03T13:56:10.608Z,954.09
2022-12-03T13:57:10.530Z,954.08
2022-12-03T13:58:10.445Z,954.07
2022-12-03T13:59:10.375Z,954.07
2022-12-03T14:00:10.358Z,954.07
2022-12-03T14:01:10.294Z,954.12
2022-12-03T14:02:10.284Z,954.11
2022-12-03T14:03:10.047Z,954.08
2022-12-03T14:04:10.013Z,954.16
2022-12-03T14:05:09.901Z,954.12
2022-12-03T14:06:09.837Z,954.10
2022-12-03T14:07:09.747Z,954.11
2022-12-03T14:08:09.714Z,954.08
2022-12-03T14:09:09.636Z,954.10
2022-12-03T14:10:09.662Z,954.13
2022-12-03T14:11:09.467Z,954.10
2022-12-03T14:12:09.413Z,954.13
2022-12-03T14:13:09.329Z,954.12
2022-12-03T14:14:09.264Z,954.11
2022-12-03T14:15:09.166Z,954.12
2022-12-03T14:16:09.153Z,954.09
2022-12-03T14:17:09.057Z,954.07
2022-12-03T14:18:08.939Z,954.10
2022-12-03T14:19:08.858Z,954.06
2022-12-03T14:20:08.807Z,954.01
2022-12-03T14:21:08.689Z,953.96
2022-12-03T14:22:08.630Z,954.00
2022-12-03T14:23:08.578Z,954.04
2022-12-03T14:24:08.459Z,954.02
2022-12-03T14:25:08.412Z,954.01
2022-12-03T14:26:08.319Z,954.03
2022-12-03T14:27:08.221Z,954.06
2022-12-03T14:28:08.150Z,954.06
2022-12-03T14:29:09.124Z,954.00
2022-12-03T14:30:08.002Z,953.95
2022-12-03T14:31:07.917Z,954.01
2022-12-03T14:32:07.919Z,953.99
2022-12-03T14:33:07.761Z,954.00
2022-12-03T14:34:07.684Z,953.97
2022-12-03T14:35:10.153Z,954.01
2022-12-03T14:36:07.537Z,954.00
2022-12-03T14:37:07.438Z,953.97
2022-12-03T14:38:07.375Z,953.99
2022-12-03T14:39:07.281Z,954.02
2022-12-03T14:40:07.227Z,954.00
2022-12-03T14:41:07.122Z,953.94
2022-12-03T14:42:07.035Z,953.99
2022-12-03T14:43:06.932Z,954.01
2022-12-03T14:44:06.875Z,953.98
2022-12-03T14:45:06.764Z,954.00
2022-12-03T14:46:13.748Z,953.99
2022-12-03T14:47:06.610Z,954.02
2022-12-03T14:48:06.560Z,954.07
2022-12-03T14:49:06.453Z,954.06
2022-12-03T14:50:06.361Z,954.02
2022-12-03T14:51:06.271Z,954.05
2022-12-03T14:52:09.822Z,954.04
2022-12-03T14:53:07.152Z,954.06
2022-12-03T14:54:06.022Z,954.07
2022-12-03T14:55:05.935Z,954.07
2022-12-03T14:56:05.846Z,954.04
2022-12-03T14:57:05.760Z,954.02
2022-12-03T14:58:05.693Z,954.05
2022-12-03T14:59:05.592Z,954.04
2022-12-03T15:00:05.539Z,953.96
2022-12-03T15:01:05.517Z,954.03
2022-12-03T15:02:05.410Z,954.04
2022-12-03T15:03:05.299Z,954.06
2022-12-03T15:04:05.181Z,954.04
2022-12-03T15:05:05.105Z,954.05
2022-12-03T15:06:04.994Z,954.01
2022-12-03T15:07:04.926Z,954.03
2022-12-03T15:08:04.911Z,954.05
2022-12-03T15:09:04.764Z,954.07
2022-12-03T15:10:04.685Z,954.01
2022-12-03T15:11:04.605Z,954.02
2022-12-03T15:12:04.537Z,954.02
2022-12-03T15:13:04.460Z,954.05
2022-12-03T15:14:04.384Z,954.10
2022-12-03T15:15:04.287Z,954.10
2022-12-03T15:16:04.244Z,954.06
2022-12-03T15:17:04.210Z,954.15
2022-12-03T15:18:04.084Z,954.11
2022-12-03T15:19:04.016Z,954.12
2022-12-03T15:20:03.916Z,954.12
2022-12-03T15:21:03.845Z,954.06
2022-12-03T15:22:03.776Z,954.12
2022-12-03T15:23:03.698Z,954.05
2022-12-03T15:24:03.625Z,954.03
2022-12-03T15:25:03.556Z,954.11
2022-12-03T15:26:03.487Z,954.10
2022-12-03T15:27:03.396Z,954.10
2022-12-03T15:28:03.341Z,954.07
2022-12-03T15:29:03.259Z,954.08
2022-12-03T15:30:03.188Z,954.03
2022-12-03T15:31:03.151Z,954.04
2022-12-03T15:32:03.027Z,954.08
2022-12-03T15:33:02.938Z,954.09
2022-12-03T15:34:02.871Z,954.09
2022-12-03T15:35:02.818Z,954.11
2022-12-03T15:36:02.720Z,954.07
2022-12-03T15:37:02.649Z,954.12
2022-12-03T15:38:02.590Z,954.12
2022-12-03T15:39:02.510Z,954.08
2022-12-03T15:40:02.430Z,954.08
2022-12-03T15:41:02.371Z,954.10
2022-12-03T15:42:02.289Z,954.10
2022-12-03T15:43:02.214Z,954.13
2022-12-03T15:44:02.155Z,954.15
2022-12-03T15:45:02.050Z,954.17
2022-12-03T15:46:02.041Z,954.17
2022-12-03T15:47:01.908Z,954.18
2022-12-03T15:48:01.828Z,954.17
2022-12-03T15:49:01.761Z,954.17
2022-12-03T15:50:01.697Z,954.16
2022-12-03T15:51:01.631Z,954.17
2022-12-03T15:52:01.540Z,954.17
2022-12-03T15:53:01.466Z,954.13
2022-12-03T15:54:01.401Z,954.10
2022-12-03T15:55:01.312Z,954.06
2022-12-03T15:56:01.277Z,954.04
2022-12-03T15:57:01.173Z,954.08
2022-12-03T15:58:01.111Z,954.05
2022-12-03T15:59:01.042Z,954.06
2022-12-03T16:00:00.963Z,954.06
2022-12-03T16:01:01.105Z,954.11
2022-12-03T16:02:00.856Z,954.10
2022-12-03T16:03:00.831Z,954.04
2022-12-03T16:04:00.673Z,954.09
2022-12-03T16:05:00.593Z,954.06
2022-12-03T16:06:00.555Z,954.08
2022-12-03T16:07:00.463Z,953.98
2022-12-03T16:08:00.463Z,953.99
2022-12-03T16:09:00.313Z,953.95
2022-12-03T16:10:00.264Z,953.97
2022-12-03T16:11:00.191Z,953.98
2022-12-03T16:12:00.123Z,953.97
2022-12-03T16:13:00.072Z,953.93
2022-12-03T16:13:59.984Z,953.96
2022-12-03T16:14:59.906Z,953.97
2022-12-03T16:15:59.895Z,954.00
2022-12-03T16:16:59.766Z,953.99
2022-12-03T16:17:59.697Z,954.02
2022-12-03T16:18:59.616Z,953.99
2022-12-03T16:19:59.543Z,954.02
2022-12-03T16:20:59.467Z,953.97
2022-12-03T16:21:59.426Z,953.94
2022-12-03T16:22:59.326Z,953.95
2022-12-03T16:23:59.279Z,953.94
2022-12-03T16:24:59.205Z,953.95
2022-12-03T16:25:59.117Z,953.93
2022-12-03T16:26:59.066Z,953.92
2022-12-03T16:27:59.028Z,953.92
2022-12-03T16:28:58.939Z,953.92
2022-12-03T16:29:58.938Z,953.88
2022-12-03T16:30:58.826Z,953.86
2022-12-03T16:31:58.727Z,953.94
2022-12-03T16:32:58.695Z,953.88
2022-12-03T16:33:58.628Z,953.90
2022-12-03T16:34:58.559Z,953.94
2022-12-03T16:35:58.496Z,953.88
2022-12-03T16:36:58.429Z,953.92
2022-12-03T16:37:58.388Z,953.93
2022-12-03T16:38:58.306Z,954.01
2022-12-03T16:39:58.252Z,953.92
2022-12-03T16:40:58.179Z,953.93
2022-12-03T16:41:58.099Z,954.00
2022-12-03T16:42:58.050Z,953.90
2022-12-03T16:43:57.978Z,953.87
2022-12-03T16:44:57.899Z,953.90
2022-12-03T16:45:57.938Z,953.85
2022-12-03T16:46:57.770Z,953.87
2022-12-03T16:47:57.690Z,953.88
2022-12-03T16:48:57.630Z,953.87
2022-12-03T16:49:57.548Z,953.88
2022-12-03T16:50:57.480Z,953.84
2022-12-03T16:51:57.431Z,953.88
2022-12-03T16:52:57.361Z,953.82
2022-12-03T16:53:57.332Z,953.84
2022-12-03T16:54:57.224Z,953.84
2022-12-03T16:55:57.184Z,953.80
2022-12-03T16:56:57.100Z,953.84
2022-12-03T16:57:57.036Z,953.81
2022-12-03T16:58:56.969Z,953.84
2022-12-03T16:59:57.052Z,953.85
2022-12-03T17:00:56.834Z,953.89
2022-12-03T17:01:56.846Z,953.89
2022-12-03T17:02:56.744Z,953.85
2022-12-03T17:03:56.641Z,953.87
2022-12-03T17:04:56.593Z,953.89
2022-12-03T17:05:56.529Z,953.94
2022-12-03T17:06:56.459Z,953.94
2022-12-03T17:07:56.459Z,953.96
2022-12-03T17:08:56.324Z,953.92
2022-12-03T17:09:56.535Z,953.94
2022-12-03T17:10:56.207Z,953.97
2022-12-03T17:11:56.104Z,953.99
2022-12-03T17:13:09.320Z,953.94
2022-12-03T17:13:56.953Z,953.96
2022-12-03T17:14:55.895Z,953.95
2022-12-03T17:15:55.838Z,953.97
2022-12-03T17:16:55.748Z,954.01
2022-12-03T17:17:55.683Z,954.02
2022-12-03T17:18:55.607Z,954.06
2022-12-03T17:19:55.777Z,954.03
2022-12-03T17:20:55.477Z,954.03
2022-12-03T17:21:55.397Z,953.96
2022-12-03T17:22:55.316Z,953.94
2022-12-03T17:23:55.266Z,953.96
2022-12-03T17:24:55.186Z,953.97
2022-12-03T17:25:55.127Z,953.96
2022-12-03T17:26:55.061Z,953.92
2022-12-03T17:27:54.987Z,953.94
2022-12-03T17:28:54.907Z,953.94
2022-12-03T17:29:55.036Z,953.88
2022-12-03T17:30:54.889Z,953.90
2022-12-03T17:31:54.795Z,953.91
2022-12-03T17:32:54.660Z,953.86
2022-12-03T17:33:54.578Z,953.85
2022-12-03T17:34:54.511Z,953.85
2022-12-03T17:35:54.446Z,953.87
2022-12-03T17:36:54.368Z,953.85
2022-12-03T17:37:54.287Z,953.87
2022-12-03T17:38:54.226Z,953.87
2022-12-03T17:39:54.481Z,953.88
2022-12-03T17:40:54.101Z,953.87
2022-12-03T17:41:54.027Z,953.84
2022-12-03T17:42:53.937Z,953.86
2022-12-03T17:43:53.870Z,953.88
2022-12-03T17:44:53.807Z,953.95
2022-12-03T17:45:53.760Z,953.91
2022-12-03T17:46:53.750Z,953.84
2022-12-03T17:47:53.608Z,953.78
2022-12-03T17:48:53.559Z,953.80
2022-12-03T17:49:53.894Z,953.77
2022-12-03T17:50:53.441Z,953.75
2022-12-03T17:51:53.350Z,953.82
2022-12-03T17:52:53.289Z,953.80
2022-12-03T17:53:53.229Z,953.84
2022-12-03T17:55:10.791Z,953.84
2022-12-03T17:55:54.100Z,953.76
2022-12-03T17:56:53.020Z,953.78
2022-12-03T17:57:52.968Z,953.80
2022-12-03T17:58:52.891Z,953.73
2022-12-03T17:59:53.011Z,953.73
2022-12-03T18:00:57.192Z,953.75
2022-12-03T18:01:53.697Z,953.73
2022-12-03T18:02:52.612Z,953.69
2022-12-03T18:03:52.668Z,953.73
2022-12-03T18:04:52.484Z,953.72
2022-12-03T18:05:52.412Z,953.68
2022-12-03T18:06:56.121Z,953.74
2022-12-03T18:07:53.316Z,953.69
2022-12-03T18:08:52.218Z,953.72
2022-12-03T18:09:52.403Z,953.69
2022-12-03T18:10:52.063Z,953.74
2022-12-03T18:11:51.985Z,953.72
2022-12-03T18:12:52.689Z,953.72
2022-12-03T18:13:51.853Z,953.73
2022-12-03T18:14:51.803Z,953.74
2022-12-03T18:15:51.759Z,953.76
2022-12-03T18:16:51.663Z,953.73
2022-12-03T18:17:51.595Z,953.77
2022-12-03T18:18:56.322Z,953.73
2022-12-03T18:19:52.733Z,953.75
2022-12-03T18:20:51.404Z,953.74
2022-12-03T18:21:51.321Z,953.73
2022-12-03T18:22:51.244Z,953.68
2022-12-03T18:23:51.195Z,953.71
2022-12-03T18:24:51.855Z,953.70
2022-12-03T18:25:51.054Z,953.68
2022-12-03T18:26:51.014Z,953.70
2022-12-03T18:27:50.916Z,953.68
2022-12-03T18:28:50.856Z,953.68
2022-12-03T18:29:50.777Z,953.66
2022-12-03T18:30:52.487Z,953.70
2022-12-03T18:31:50.835Z,953.70
2022-12-03T18:32:50.609Z,953.72
2022-12-03T18:33:50.525Z,953.68
2022-12-03T18:34:50.471Z,953.68
2022-12-03T18:35:50.417Z,953.64
2022-12-03T18:36:50.363Z,953.70
2022-12-03T18:37:50.277Z,953.65
2022-12-03T18:38:50.215Z,953.61
2022-12-03T18:39:50.148Z,953.60
2022-12-03T18:40:50.074Z,953.61
2022-12-03T18:41:50.040Z,953.65
2022-12-03T18:42:49.960Z,953.58
2022-12-03T18:43:49.880Z,953.64
2022-12-03T18:44:50.168Z,953.68
2022-12-03T18:45:49.765Z,953.68
2022-12-03T18:46:54.206Z,953.72
2022-12-03T18:47:49.761Z,953.68
2022-12-03T18:48:49.577Z,953.67
2022-12-03T18:49:49.496Z,953.70
2022-12-03T18:50:49.436Z,953.70
2022-12-03T18:51:52.141Z,953.65
2022-12-03T18:52:50.308Z,953.68
2022-12-03T18:53:49.237Z,953.66
2022-12-03T18:54:49.159Z,953.66
2022-12-03T18:55:49.101Z,953.67
2022-12-03T18:56:49.029Z,953.68
2022-12-03T18:57:48.941Z,953.64
2022-12-03T18:58:48.879Z,953.66
2022-12-03T18:59:48.800Z,953.67
2022-12-03T19:00:48.752Z,953.61
2022-12-03T19:01:48.684Z,953.67
2022-12-03T19:03:03.875Z,953.61
2022-12-03T19:03:49.530Z,953.60
2022-12-03T19:04:48.441Z,953.62
2022-12-03T19:05:48.389Z,953.66
2022-12-03T19:06:48.321Z,953.65
2022-12-03T19:07:48.326Z,953.67
2022-12-03T19:08:48.182Z,953.70
2022-12-03T19:09:48.101Z,953.64
2022-12-03T19:10:48.031Z,953.69
2022-12-03T19:11:47.951Z,953.66
2022-12-03T19:12:47.882Z,953.66
2022-12-03T19:13:47.817Z,953.64
2022-12-03T19:14:47.760Z,953.62
2022-12-03T19:15:47.672Z,953.62
2022-12-03T19:16:47.656Z,953.60
2022-12-03T19:17:47.523Z,953.58
2022-12-03T19:18:47.452Z,953.53
2022-12-03T19:19:47.403Z,953.58
2022-12-03T19:20:47.324Z,953.59
2022-12-03T19:21:47.246Z,953.56
2022-12-03T19:22:47.154Z,953.60
2022-12-03T19:24:16.125Z,953.54
2022-12-03T19:24:48.036Z,953.53
2022-12-03T19:25:46.935Z,953.50
2022-12-03T19:26:46.862Z,953.49
2022-12-03T19:27:46.766Z,953.55
2022-12-03T19:28:46.693Z,953.55
2022-12-03T19:29:46.614Z,953.52
2022-12-03T19:30:46.546Z,953.55
2022-12-03T19:31:46.559Z,953.54
2022-12-03T19:32:46.376Z,953.51
2022-12-03T19:33:46.307Z,953.49
2022-12-03T19:34:46.235Z,953.48
2022-12-03T19:35:46.172Z,953.46
2022-12-03T19:36:46.071Z,953.46
2022-12-03T19:37:46.006Z,953.45
2022-12-03T19:38:45.906Z,953.46
2022-12-03T19:39:45.813Z,953.48
2022-12-03T19:40:45.756Z,953.48
2022-12-03T19:41:45.666Z,953.51
2022-12-03T19:42:45.587Z,953.47
2022-12-03T19:43:45.517Z,953.51
2022-12-03T19:44:45.434Z,953.46
2022-12-03T19:45:45.418Z,953.49
2022-12-03T19:46:45.297Z,953.49
2022-12-03T19:47:45.201Z,953.49
2022-12-03T19:48:45.127Z,953.42
2022-12-03T19:49:45.049Z,953.46
2022-12-03T19:50:44.998Z,953.51
2022-12-03T19:51:44.909Z,953.49
2022-12-03T19:52:44.838Z,953.53
2022-12-03T19:53:44.758Z,953.56
2022-12-03T19:54:44.689Z,953.55
2022-12-03T19:55:44.627Z,953.55
2022-12-03T19:56:44.520Z,953.56
2022-12-03T19:57:44.445Z,953.52
2022-12-03T19:58:44.388Z,953.60
2022-12-03T19:59:44.289Z,953.61
2022-12-03T20:00:44.231Z,953.58
2022-12-03T20:01:44.237Z,953.56
2022-12-03T20:02:44.114Z,953.57
2022-12-03T20:03:43.969Z,953.56
2022-12-03T20:04:43.892Z,953.55
2022-12-03T20:05:43.822Z,953.53
2022-12-03T20:06:43.747Z,953.54
2022-12-03T20:07:43.685Z,953.55
2022-12-03T20:08:43.598Z,953.54
2022-12-03T20:09:43.501Z,953.50
2022-12-03T20:10:43.412Z,953.53
2022-12-03T20:11:43.371Z,953.51
2022-12-03T20:12:43.261Z,953.58
2022-12-03T20:13:43.181Z,953.52
2022-12-03T20:14:43.104Z,953.50
2022-12-03T20:15:43.020Z,953.52
2022-12-03T20:16:43.050Z,953.52
2022-12-03T20:17:42.883Z,953.50
2022-12-03T20:18:42.803Z,953.54
2022-12-03T20:19:42.702Z,953.54
2022-12-03T20:20:42.632Z,953.53
2022-12-03T20:21:42.556Z,953.48
2022-12-03T20:22:42.494Z,953.49
2022-12-03T20:23:42.394Z,953.47
2022-12-03T20:24:42.337Z,953.43
2022-12-03T20:25:42.254Z,953.47
2022-12-03T20:26:42.183Z,953.41
2022-12-03T20:27:42.124Z,953.44
2022-12-03T20:28:42.035Z,953.44
2022-12-03T20:29:41.954Z,953.46
2022-12-03T20:30:41.881Z,953.45
2022-12-03T20:31:41.837Z,953.47
2022-12-03T20:32:45.349Z,953.46
2022-12-03T20:33:41.642Z,953.46
2022-12-03T20:34:41.563Z,953.50
2022-12-03T20:35:41.475Z,953.48
2022-12-03T20:36:41.397Z,953.44
2022-12-03T20:37:41.325Z,953.44
2022-12-03T20:38:41.236Z,953.43
2022-12-03T20:39:41.153Z,953.42
2022-12-03T20:40:41.075Z,953.38
2022-12-03T20:41:41.016Z,953.46
2022-12-03T20:42:40.927Z,953.46
2022-12-03T20:43:40.826Z,953.43
2022-12-03T20:44:40.759Z,953.45
2022-12-03T20:45:40.767Z,953.45
